TimeEST,TemperatureF,Dew PointF,Humidity,Sea Level PressureIn,VisibilityMPH,Wind Direction,Wind SpeedMPH,Gust SpeedMPH,PrecipitationIn,Events,Conditions,WindDirDegrees,DateUTC
12:51 AM,17.1,-0.9,45,30.36,10.0,West,5.8,-,N/A,,Overcast,260,2013-01-23 05:51:00
1:51 AM,16.0,-0.9,47,30.35,10.0,WSW,6.9,-,N/A,,Mostly Cloudy,240,2013-01-23 06:51:00
2:51 AM,16.0,-0.0,49,30.37,10.0,SW,4.6,-,N/A,,Overcast,230,2013-01-23 07:51:00
3:51 AM,15.1,-0.0,51,30.38,10.0,WSW,6.9,-,N/A,,Mostly Cloudy,250,2013-01-23 08:51:00
4:51 AM,15.1,-0.0,51,30.37,10.0,WSW,6.9,-,N/A,,Scattered Clouds,250,2013-01-23 09:51:00
5:51 AM,14.0,-0.0,54,30.37,10.0,WSW,4.6,-,N/A,,Clear,240,2013-01-23 10:51:00
6:51 AM,12.9,-0.0,56,30.38,10.0,SW,3.5,-,N/A,,Clear,220,2013-01-23 11:51:00
7:51 AM,14.0,-0.0,54,30.38,10.0,SW,4.6,-,N/A,,Clear,230,2013-01-23 12:51:00
8:51 AM,16.0,1.0,52,30.38,10.0,WSW,4.6,-,N/A,,Partly Cloudy,250,2013-01-23 13:51:00
9:51 AM,17.1,1.0,50,30.39,10.0,WSW,5.8,-,N/A,,Overcast,240,2013-01-23 14:51:00
10:51 AM,19.0,1.0,46,30.39,10.0,SW,6.9,-,N/A,,Overcast,220,2013-01-23 15:51:00
11:51 AM,21.0,1.0,42,30.36,10.0,SW,8.1,-,N/A,,Overcast,220,2013-01-23 16:51:00
12:51 PM,23.0,1.4,39,30.27,10.0,South,9.2,-,N/A,,Overcast,190,2013-01-23 17:51:00
1:51 PM,23.0,-0.0,37,30.27,10.0,SSW,6.9,-,N/A,,Overcast,200,2013-01-23 18:51:00
2:51 PM,23.0,1.9,40,30.26,9.0,SW,6.9,-,0.00,Snow,Light Snow,230,2013-01-23 19:51:00
3:51 PM,23.0,3.0,42,30.24,9.0,WSW,4.6,-,0.00,Snow,Light Snow,240,2013-01-23 20:51:00
4:51 PM,23.0,3.0,42,30.21,10.0,Calm,Calm,-,N/A,,Overcast,0,2013-01-23 21:51:00
5:51 PM,24.1,3.9,42,30.18,10.0,Calm,Calm,-,N/A,,Overcast,0,2013-01-23 22:51:00
6:51 PM,23.0,5.0,46,30.16,10.0,Calm,Calm,-,N/A,,Overcast,0,2013-01-23 23:51:00
7:51 PM,24.1,6.1,46,30.14,10.0,Calm,Calm,-,N/A,,Overcast,0,2013-01-24 00:51:00
8:51 PM,24.8,6.8,46,30.09,10.0,Calm,Calm,-,N/A,,Overcast,0,2013-01-24 01:51:00
9:51 PM,24.1,7.0,48,30.12,10.0,Calm,Calm,-,N/A,,Overcast,0,2013-01-24 02:51:00
10:51 PM,24.1,8.1,51,30.12,10.0,North,3.5,-,N/A,,Overcast,10,2013-01-24 03:51:00
11:51 PM,23.0,8.1,53,30.10,10.0,NE,3.5,-,N/A,,Overcast,50,2013-01-24 04:51:00